• Join FlightAware (Why Join?)
  • Login
  • US Flag 
09:45AM EDT


 

Airport Tracker/Info


-or-


 

Live Flight TrackerFlight Track Log ✈ EJA846 ✈ 26-Jul-2013 ✈ KPVD - KHYA

Flight Track Log - Related Links

Times and Time Zones

All times are in EDT time to prevent confusion due to time zone crossing. See the EJA846 flight status page for this flight to view local times or setup timezone preferences in your user account.

Time Position Orientation Groundspeed Altitude Reporting Facility
EDT Latitude Longitude Course Direction KTS MPH feet Rate Location/Type
10:56AM 41.7289 -71.4219 72° East 160 184 800  Level Boston Center
10:57AM 41.7450 -71.3550 72° East 197 227 4,200 2,040 Climbing Boston Center
10:58AM 41.7567 -71.2686 80° East 234 269 5,000 360 Climbing Boston Center
10:59AM 41.7681 -71.1819 80° East 236 272 5,000  Level Boston Center
11:01AM 41.7667 -71.0727 90° East  Level FlightAware Approximate
11:08AM 41.8582 -70.4625 79° East  Level FlightAware Approximate
11:09AM 41.8513 -70.3846 143° Southeast  Level FlightAware Approximate
11:10AM 41.7892 -70.3529 160° South  Level FlightAware Approximate
11:11AM 41.7295 -70.3138 151° Southeast  Level FlightAware Approximate
11:12AM 41.6715 -70.2703 151° Southeast  Level FlightAware Approximate
11:13AM 41.6667 -70.2667 151° Southeast  Level FlightAware Approximate
11:14AM 41.6693 -70.2804 151° Southeast  Level Estimated
11:15AM 41.6693 -70.2804 151° Southeast  Level Estimated
11:16AM 41.6693 -70.2804 151° Southeast  Level Estimated
11:17AM 41.6693 -70.2804 151° Southeast  Level Estimated
11:18AM 41.6693 -70.2804 151° Southeast  Level Estimated
11:19AM 41.6693 -70.2804 151° Southeast  Level Estimated
11:20AM 41.6693 -70.2804 151° Southeast  Level Estimated
11:21AM 41.6693 -70.2804 151° Southeast  Level Estimated
11:22AM 41.6693 -70.2804 151° Southeast  Level Estimated
11:23AM 41.6693 -70.2804 151° Southeast  Level Estimated
11:24AM 41.6693 -70.2804 151° Southeast  Level Estimated
11:25AM 41.6693 -70.2804 151° Southeast  Level Estimated
11:26AM 41.6693 -70.2804 151° Southeast  Level Estimated
11:27AM 41.6693 -70.2804 151° Southeast  Level Estimated